createdAt,value
2019-05-26T00:00:34.713Z,6.60
2019-05-26T00:01:38.375Z,7.33
2019-05-26T00:02:42.510Z,10.40
2019-05-26T00:03:46.189Z,10.77
2019-05-26T00:04:50.418Z,7.93
2019-05-26T00:05:54.058Z,6.87
2019-05-26T00:06:58.203Z,6.87
2019-05-26T00:08:01.768Z,8.43
2019-05-26T00:09:07.443Z,7.17
2019-05-26T00:10:11.412Z,9.03
2019-05-26T00:11:16.074Z,8.70
2019-05-26T00:12:20.603Z,7.83
2019-05-26T00:13:24.844Z,9.23
2019-05-26T00:14:28.527Z,8.33
2019-05-26T00:15:32.741Z,8.00
2019-05-26T00:16:36.377Z,9.43
2019-05-26T00:17:40.586Z,7.63
2019-05-26T00:18:44.206Z,8.03
2019-05-26T00:19:48.849Z,8.40
2019-05-26T00:20:52.510Z,8.90
2019-05-26T00:21:56.745Z,8.63
2019-05-26T00:23:00.312Z,7.80
2019-05-26T00:24:04.551Z,7.80
2019-05-26T00:25:08.946Z,8.67
2019-05-26T00:26:13.150Z,7.53
2019-05-26T00:27:16.785Z,9.63
2019-05-26T00:28:21.011Z,7.07
2019-05-26T00:29:24.674Z,10.40
2019-05-26T00:30:29.029Z,7.70
2019-05-26T00:31:33.085Z,10.90
2019-05-26T00:32:37.508Z,8.07
2019-05-26T00:33:41.061Z,9.23
2019-05-26T00:34:45.292Z,9.70
2019-05-26T00:35:49.362Z,10.57
2019-05-26T00:36:53.573Z,11.07
2019-05-26T00:37:57.216Z,11.90
2019-05-26T00:39:01.468Z,13.90
2019-05-26T00:40:10.046Z,11.80
2019-05-26T00:41:14.269Z,12.60
2019-05-26T00:42:18.303Z,20.73
2019-05-26T00:43:22.534Z,12.77
2019-05-26T00:44:26.213Z,12.23
2019-05-26T00:45:30.534Z,12.60
2019-05-26T00:46:34.156Z,12.37
2019-05-26T00:47:38.689Z,12.03
2019-05-26T00:48:42.370Z,11.93
2019-05-26T00:49:46.585Z,13.57
2019-05-26T00:50:50.373Z,10.83
2019-05-26T00:51:54.586Z,10.80
2019-05-26T00:52:58.255Z,11.63
2019-05-26T00:54:02.484Z,12.97
2019-05-26T00:55:07.962Z,11.47
2019-05-26T00:56:12.207Z,11.50
2019-05-26T00:57:16.233Z,11.13
2019-05-26T00:58:20.465Z,10.17
2019-05-26T00:59:24.437Z,12.10
2019-05-26T01:00:39.921Z,14.53
2019-05-26T01:01:43.591Z,12.90
2019-05-26T01:02:47.817Z,11.20
2019-05-26T01:03:51.741Z,13.03
2019-05-26T01:04:56.028Z,10.77
2019-05-26T01:05:59.683Z,11.33
2019-05-26T01:07:03.926Z,9.33
2019-05-26T01:08:08.419Z,12.70
2019-05-26T01:09:12.630Z,10.77
2019-05-26T01:10:16.542Z,10.20
2019-05-26T01:11:20.767Z,11.50
2019-05-26T01:12:24.436Z,11.63
2019-05-26T01:13:28.646Z,9.97
2019-05-26T01:14:32.287Z,12.50
2019-05-26T01:15:36.829Z,14.47
2019-05-26T01:16:40.474Z,15.57
2019-05-26T01:17:44.747Z,14.20
2019-05-26T01:18:48.397Z,14.37
2019-05-26T01:19:52.695Z,16.10
2019-05-26T01:20:56.356Z,14.13
2019-05-26T01:22:00.587Z,17.00
2019-05-26T01:23:04.332Z,18.43
2019-05-26T01:24:08.548Z,19.63
2019-05-26T01:25:12.517Z,15.97
2019-05-26T01:26:16.749Z,15.23
2019-05-26T01:27:20.423Z,15.17
2019-05-26T01:28:24.765Z,14.57
2019-05-26T01:29:28.729Z,17.07
2019-05-26T01:30:37.194Z,17.77
2019-05-26T01:31:40.824Z,15.90
2019-05-26T01:32:45.044Z,14.03
2019-05-26T01:33:48.738Z,16.37
2019-05-26T01:34:52.952Z,10.33
2019-05-26T01:35:56.720Z,10.93
2019-05-26T01:37:01.148Z,10.83
2019-05-26T01:38:20.623Z,10.33
2019-05-26T01:39:11.213Z,10.73
2019-05-26T01:40:15.947Z,11.60
2019-05-26T01:41:20.205Z,9.70
2019-05-26T01:42:23.853Z,9.27
2019-05-26T01:43:28.062Z,8.50
2019-05-26T01:44:31.699Z,10.73
2019-05-26T01:45:35.934Z,9.90
2019-05-26T01:46:39.534Z,10.40
2019-05-26T01:47:43.836Z,8.33
2019-05-26T01:48:47.405Z,11.40
2019-05-26T01:49:51.589Z,7.63
2019-05-26T01:50:55.262Z,8.60
2019-05-26T01:51:59.418Z,11.90
2019-05-26T01:53:03.071Z,8.10
2019-05-26T01:54:07.623Z,8.10
2019-05-26T01:55:11.595Z,7.87
2019-05-26T01:56:15.862Z,8.27
2019-05-26T01:57:19.510Z,11.10
2019-05-26T01:58:24.127Z,18.40
2019-05-26T01:59:27.756Z,8.10
2019-05-26T02:00:32.131Z,8.43
2019-05-26T02:01:35.864Z,8.37
2019-05-26T02:02:40.102Z,9.37
2019-05-26T02:03:43.743Z,9.83
2019-05-26T02:04:47.964Z,9.47
2019-05-26T02:05:51.613Z,8.40
2019-05-26T02:06:55.857Z,7.93
2019-05-26T02:07:59.494Z,9.17
2019-05-26T02:09:04.862Z,7.97
2019-05-26T02:10:09.191Z,9.73
2019-05-26T02:11:13.422Z,9.13
2019-05-26T02:12:17.088Z,8.60
2019-05-26T02:13:21.308Z,11.27
2019-05-26T02:14:25.368Z,9.17
2019-05-26T02:15:29.858Z,8.87
2019-05-26T02:16:33.503Z,10.90
2019-05-26T02:17:37.761Z,9.57
2019-05-26T02:18:41.360Z,9.60
2019-05-26T02:19:45.583Z,10.13
2019-05-26T02:20:49.262Z,10.03
2019-05-26T02:21:53.476Z,10.10
2019-05-26T02:22:57.120Z,9.97
2019-05-26T02:24:01.344Z,10.53
2019-05-26T02:25:07.082Z,10.87
2019-05-26T02:26:11.332Z,11.60
2019-05-26T02:27:14.967Z,12.37
2019-05-26T02:28:19.218Z,10.90
2019-05-26T02:29:22.876Z,12.33
2019-05-26T02:30:27.090Z,11.93
2019-05-26T02:31:30.764Z,10.97
2019-05-26T02:32:35.003Z,10.27
2019-05-26T02:33:38.992Z,10.63
2019-05-26T02:34:43.231Z,9.20
2019-05-26T02:35:46.876Z,9.67
2019-05-26T02:36:51.143Z,10.27
2019-05-26T02:37:54.764Z,10.10
2019-05-26T02:39:02.556Z,10.50
2019-05-26T02:40:09.562Z,9.47
2019-05-26T02:41:13.800Z,9.03
2019-05-26T02:42:17.469Z,10.33
2019-05-26T02:43:22.060Z,10.03
2019-05-26T02:44:25.698Z,8.13
2019-05-26T02:45:29.954Z,11.63
2019-05-26T02:46:33.576Z,9.20
2019-05-26T02:47:37.841Z,9.80
2019-05-26T02:48:41.470Z,12.90
2019-05-26T02:49:45.704Z,9.90
2019-05-26T02:50:49.343Z,12.00
2019-05-26T02:51:53.578Z,8.17
2019-05-26T02:52:57.159Z,8.17
2019-05-26T02:54:01.409Z,8.30
2019-05-26T02:55:07.324Z,8.53
2019-05-26T02:56:12.356Z,8.20
2019-05-26T02:57:16.315Z,9.67
2019-05-26T02:58:20.545Z,8.03
2019-05-26T02:59:24.225Z,9.03
2019-05-26T03:00:37.640Z,8.53
2019-05-26T03:02:00.839Z,8.73
2019-05-26T03:02:47.430Z,8.43
2019-05-26T03:03:51.747Z,9.77
2019-05-26T03:04:56.024Z,9.27
2019-05-26T03:06:00.411Z,8.57
2019-05-26T03:07:05.047Z,8.80
2019-05-26T03:08:09.096Z,13.13
2019-05-26T03:09:22.902Z,9.83
2019-05-26T03:10:19.504Z,9.97
2019-05-26T03:11:26.676Z,11.97
2019-05-26T03:12:31.062Z,13.00
2019-05-26T03:13:38.333Z,11.70
2019-05-26T03:14:44.161Z,13.50
2019-05-26T03:15:48.443Z,12.43
2019-05-26T03:16:54.073Z,12.37
2019-05-26T03:18:00.499Z,12.50
2019-05-26T03:19:05.460Z,13.63
2019-05-26T03:20:10.686Z,10.80
2019-05-26T03:21:16.806Z,10.73
2019-05-26T03:22:22.730Z,11.03
2019-05-26T03:23:29.419Z,10.53
2019-05-26T03:24:34.143Z,9.97
2019-05-26T03:25:38.313Z,9.97
2019-05-26T03:26:42.587Z,9.80
2019-05-26T03:27:46.208Z,10.07
2019-05-26T03:28:50.455Z,8.20
2019-05-26T03:29:54.107Z,9.77
2019-05-26T03:30:58.332Z,9.03
2019-05-26T03:32:02.480Z,8.40
2019-05-26T03:33:07.325Z,9.60
2019-05-26T03:34:10.932Z,8.60
2019-05-26T03:35:15.565Z,12.10
2019-05-26T03:36:19.196Z,12.60
2019-05-26T03:37:23.464Z,8.60
2019-05-26T03:38:27.125Z,10.43
2019-05-26T03:39:43.237Z,9.67
2019-05-26T03:40:36.728Z,10.33
2019-05-26T03:41:40.966Z,10.47
2019-05-26T03:42:44.620Z,8.60
2019-05-26T03:43:48.871Z,10.63
2019-05-26T03:44:52.787Z,11.40
2019-05-26T03:46:05.891Z,10.63
2019-05-26T03:47:09.920Z,10.03
2019-05-26T03:48:14.198Z,8.70
2019-05-26T03:49:17.827Z,9.27
2019-05-26T03:50:22.050Z,11.23
2019-05-26T03:51:26.123Z,11.50
2019-05-26T03:52:30.334Z,9.37
2019-05-26T03:53:34.020Z,9.07
2019-05-26T03:54:38.620Z,11.53
2019-05-26T03:55:42.300Z,9.27
2019-05-26T03:56:46.497Z,10.80
2019-05-26T03:57:50.082Z,10.60
2019-05-26T03:58:54.351Z,12.77
2019-05-26T03:59:57.985Z,10.50
2019-05-26T04:01:02.211Z,10.30
2019-05-26T04:02:05.840Z,10.07
2019-05-26T04:03:10.418Z,11.13
2019-05-26T04:04:14.111Z,9.53
2019-05-26T04:05:18.317Z,10.00
2019-05-26T04:06:21.980Z,11.53
2019-05-26T04:07:26.180Z,10.13
2019-05-26T04:08:30.227Z,12.40
2019-05-26T04:09:34.476Z,10.10
2019-05-26T04:10:38.118Z,10.30
2019-05-26T04:11:42.336Z,9.40
2019-05-26T04:12:45.955Z,10.40
2019-05-26T04:13:50.195Z,10.03
2019-05-26T04:14:54.336Z,10.87
2019-05-26T04:15:58.636Z,10.90
2019-05-26T04:17:02.285Z,12.37
2019-05-26T04:18:06.488Z,13.13
2019-05-26T04:19:10.121Z,14.03
2019-05-26T04:20:14.487Z,12.93
2019-05-26T04:21:18.120Z,11.37
2019-05-26T04:22:22.355Z,12.07
2019-05-26T04:23:26.200Z,12.70
2019-05-26T04:24:30.391Z,11.93
2019-05-26T04:25:34.203Z,11.67
2019-05-26T04:26:38.422Z,11.67
2019-05-26T04:27:42.328Z,9.23
2019-05-26T04:28:46.588Z,9.63
2019-05-26T04:29:50.325Z,10.33
2019-05-26T04:30:54.619Z,16.70
2019-05-26T04:32:01.891Z,10.80
2019-05-26T04:33:04.501Z,11.70
2019-05-26T04:34:08.164Z,10.40
2019-05-26T04:35:12.369Z,12.07
2019-05-26T04:36:15.963Z,9.90
2019-05-26T04:37:20.242Z,10.93
2019-05-26T04:38:24.172Z,12.43
2019-05-26T04:39:28.314Z,11.43
2019-05-26T04:40:31.945Z,11.60
2019-05-26T04:41:36.527Z,13.97
2019-05-26T04:42:40.263Z,15.80
2019-05-26T04:43:44.569Z,12.27
2019-05-26T04:44:48.582Z,14.53
2019-05-26T04:45:53.201Z,13.37
2019-05-26T04:46:56.876Z,12.80
2019-05-26T04:48:01.294Z,13.80
2019-05-26T04:49:05.149Z,17.50
2019-05-26T04:50:09.708Z,12.53
2019-05-26T04:51:13.728Z,12.40
2019-05-26T04:52:17.937Z,12.97
2019-05-26T04:53:22.701Z,14.93
2019-05-26T04:54:27.402Z,14.10
2019-05-26T04:55:31.004Z,16.07
2019-05-26T04:56:35.335Z,14.00
2019-05-26T04:57:39.030Z,14.33
2019-05-26T04:58:43.275Z,17.67
2019-05-26T04:59:46.936Z,19.27
2019-05-26T05:00:51.148Z,12.67
2019-05-26T05:01:54.827Z,12.30
2019-05-26T05:02:59.412Z,10.83
2019-05-26T05:04:03.107Z,13.43
2019-05-26T05:05:11.052Z,13.30
2019-05-26T05:06:14.693Z,11.67
2019-05-26T05:07:19.216Z,13.13
2019-05-26T05:08:22.878Z,13.60
2019-05-26T05:09:27.085Z,13.47
2019-05-26T05:10:41.810Z,13.17
2019-05-26T05:11:37.137Z,13.43
2019-05-26T05:12:40.793Z,15.97
2019-05-26T05:13:45.025Z,15.30
2019-05-26T05:14:49.095Z,12.53
2019-05-26T05:15:53.324Z,12.97
2019-05-26T05:16:57.253Z,12.73
2019-05-26T05:18:01.795Z,16.00
2019-05-26T05:19:05.427Z,13.70
2019-05-26T05:20:09.755Z,15.90
2019-05-26T05:21:13.432Z,16.97
2019-05-26T05:22:17.675Z,14.60
2019-05-26T05:23:21.336Z,15.83
2019-05-26T05:24:25.913Z,15.47
2019-05-26T05:25:29.586Z,16.90
2019-05-26T05:26:33.865Z,13.10
2019-05-26T05:27:37.600Z,13.33
2019-05-26T05:28:41.825Z,15.10
2019-05-26T05:29:45.461Z,14.00
2019-05-26T05:30:49.698Z,12.83
2019-05-26T05:31:53.391Z,13.63
2019-05-26T05:32:57.639Z,14.23
2019-05-26T05:34:04.218Z,13.43
2019-05-26T05:35:09.833Z,12.30
2019-05-26T05:36:13.493Z,12.93
2019-05-26T05:37:17.691Z,14.03
2019-05-26T05:38:21.329Z,11.27
2019-05-26T05:39:25.498Z,12.53
2019-05-26T05:40:29.584Z,11.73
2019-05-26T05:41:34.111Z,11.83
2019-05-26T05:42:37.896Z,13.93
2019-05-26T05:43:42.141Z,30.70
2019-05-26T05:44:45.787Z,11.57
2019-05-26T05:45:50.020Z,11.97
2019-05-26T05:46:54.862Z,12.10
2019-05-26T05:47:59.122Z,11.60
2019-05-26T05:49:02.775Z,12.70
2019-05-26T05:50:11.661Z,12.50
2019-05-26T05:51:15.310Z,10.97
2019-05-26T05:52:19.810Z,14.77
2019-05-26T05:53:23.437Z,12.60
2019-05-26T05:54:27.971Z,14.93
2019-05-26T05:55:31.605Z,14.10
2019-05-26T05:56:35.882Z,12.13
2019-05-26T05:57:39.589Z,17.17
2019-05-26T05:58:43.842Z,30.93
2019-05-26T05:59:47.551Z,11.80
2019-05-26T06:00:51.963Z,13.07
2019-05-26T06:01:55.604Z,14.70
2019-05-26T06:02:59.911Z,17.13
2019-05-26T06:04:03.585Z,10.80
2019-05-26T06:05:08.540Z,12.60
2019-05-26T06:06:12.192Z,15.17
2019-05-26T06:07:23.731Z,11.57
2019-05-26T06:08:27.379Z,11.37
2019-05-26T06:09:34.757Z,11.93
2019-05-26T06:10:38.434Z,14.10
2019-05-26T06:11:42.741Z,11.13
2019-05-26T06:12:46.384Z,9.20
2019-05-26T06:13:51.047Z,11.10
2019-05-26T06:14:54.670Z,10.83
2019-05-26T06:15:58.957Z,11.43
2019-05-26T06:17:02.590Z,11.83
2019-05-26T06:18:06.822Z,11.23
2019-05-26T06:19:10.486Z,11.23
2019-05-26T06:20:15.228Z,11.93
2019-05-26T06:21:18.844Z,12.30
2019-05-26T06:22:23.067Z,10.57
2019-05-26T06:23:26.711Z,10.07
2019-05-26T06:24:30.925Z,17.43
2019-05-26T06:25:34.655Z,12.17
2019-05-26T06:26:38.897Z,9.57
2019-05-26T06:27:42.683Z,10.50
2019-05-26T06:28:46.878Z,10.23
2019-05-26T06:29:58.749Z,9.83
2019-05-26T06:30:56.510Z,11.57
2019-05-26T06:32:00.605Z,11.43
2019-05-26T06:33:05.126Z,9.60
2019-05-26T06:34:08.764Z,9.20
2019-05-26T06:35:13.340Z,13.13
2019-05-26T06:36:16.975Z,10.07
2019-05-26T06:37:21.505Z,9.03
2019-05-26T06:38:25.164Z,9.30
2019-05-26T06:39:29.743Z,9.37
2019-05-26T06:40:33.395Z,10.23
2019-05-26T06:41:37.283Z,8.97
2019-05-26T06:42:41.164Z,8.37
2019-05-26T06:43:45.385Z,9.47
2019-05-26T06:44:53.610Z,8.73
2019-05-26T06:45:54.957Z,8.37
2019-05-26T06:46:58.588Z,8.07
2019-05-26T06:48:02.833Z,9.33
2019-05-26T06:49:06.490Z,9.43
2019-05-26T06:50:11.016Z,11.87
2019-05-26T06:51:14.663Z,9.00
2019-05-26T06:52:18.890Z,8.23
2019-05-26T06:53:22.609Z,10.53
2019-05-26T06:54:26.857Z,11.00
2019-05-26T06:55:30.699Z,8.27
2019-05-26T06:56:35.135Z,9.60
2019-05-26T06:57:38.781Z,10.37
2019-05-26T06:58:43.063Z,7.73
2019-05-26T06:59:46.617Z,7.60
2019-05-26T07:00:50.919Z,10.57
2019-05-26T07:01:54.995Z,10.17
2019-05-26T07:02:59.306Z,9.87
2019-05-26T07:04:02.960Z,9.43
2019-05-26T07:05:08.683Z,7.53
2019-05-26T07:06:12.275Z,7.90
2019-05-26T07:07:16.501Z,7.73
2019-05-26T07:08:20.171Z,9.27
2019-05-26T07:09:24.385Z,8.43
2019-05-26T07:10:28.195Z,8.10
2019-05-26T07:11:49.035Z,9.27
2019-05-26T07:12:37.748Z,7.87
2019-05-26T07:13:42.379Z,6.70
2019-05-26T07:14:46.036Z,11.93
2019-05-26T07:15:50.240Z,8.13
2019-05-26T07:16:53.871Z,9.13
2019-05-26T07:17:58.035Z,7.43
2019-05-26T07:19:01.707Z,7.10
2019-05-26T07:20:10.193Z,7.40
2019-05-26T07:21:13.887Z,7.37
2019-05-26T07:22:18.497Z,8.77
2019-05-26T07:23:22.161Z,7.20
2019-05-26T07:24:29.373Z,7.73
2019-05-26T07:25:31.803Z,8.30
2019-05-26T07:26:36.034Z,8.20
2019-05-26T07:27:39.679Z,7.33
2019-05-26T07:28:43.835Z,8.80
2019-05-26T07:29:47.503Z,7.50
2019-05-26T07:30:51.766Z,7.33
2019-05-26T07:31:55.342Z,6.30
2019-05-26T07:32:59.558Z,7.10
2019-05-26T07:34:03.196Z,7.10
2019-05-26T07:35:09.225Z,7.30
2019-05-26T07:36:12.717Z,6.37
2019-05-26T07:37:16.966Z,8.33
2019-05-26T07:38:20.630Z,8.60
2019-05-26T07:39:25.194Z,6.03
2019-05-26T07:40:28.881Z,5.80
2019-05-26T07:41:33.170Z,6.80
2019-05-26T07:42:37.087Z,6.27
2019-05-26T07:43:41.232Z,6.63
2019-05-26T07:44:44.884Z,8.60
2019-05-26T07:45:49.143Z,7.13
2019-05-26T07:46:52.792Z,7.00
2019-05-26T07:47:57.017Z,6.37
2019-05-26T07:49:00.657Z,5.97
2019-05-26T07:50:07.713Z,6.47
2019-05-26T07:51:11.446Z,5.67
2019-05-26T07:52:15.667Z,8.03
2019-05-26T07:53:19.314Z,5.77
2019-05-26T07:54:25.792Z,5.83
2019-05-26T07:55:28.828Z,5.23
2019-05-26T07:56:33.100Z,8.35
2019-05-26T07:57:36.749Z,5.37
2019-05-26T07:58:40.983Z,5.90
2019-05-26T07:59:44.621Z,5.67
2019-05-26T08:00:48.838Z,5.78
2019-05-26T08:01:52.521Z,5.45
2019-05-26T08:02:56.763Z,11.97
2019-05-26T08:04:00.383Z,6.05
2019-05-26T08:05:06.619Z,5.35
2019-05-26T08:06:10.325Z,6.87
2019-05-26T08:07:14.880Z,4.50
2019-05-26T08:08:18.830Z,5.87
2019-05-26T08:09:23.059Z,6.03
2019-05-26T08:10:26.707Z,4.83
2019-05-26T08:11:30.917Z,4.42
2019-05-26T08:12:34.981Z,4.90
2019-05-26T08:13:39.234Z,4.90
2019-05-26T08:14:43.271Z,6.58
2019-05-26T08:15:47.496Z,4.72
2019-05-26T08:16:51.226Z,5.17
2019-05-26T08:17:55.646Z,5.97
2019-05-26T08:18:59.231Z,5.58
2019-05-26T08:20:03.781Z,5.28
2019-05-26T08:21:07.539Z,4.75
2019-05-26T08:22:11.784Z,5.08
2019-05-26T08:23:15.689Z,4.87
2019-05-26T08:24:20.055Z,5.20
2019-05-26T08:25:23.701Z,5.60
2019-05-26T08:26:28.054Z,7.60
2019-05-26T08:27:31.682Z,5.55
2019-05-26T08:28:35.909Z,5.22
2019-05-26T08:29:40.004Z,5.87
2019-05-26T08:30:44.314Z,5.37
2019-05-26T08:31:48.268Z,6.12
2019-05-26T08:32:52.510Z,4.85
2019-05-26T08:33:56.255Z,5.35
2019-05-26T08:35:00.563Z,5.05
2019-05-26T08:36:04.192Z,4.85
2019-05-26T08:37:08.418Z,4.67
2019-05-26T08:38:14.613Z,5.22
2019-05-26T08:39:18.852Z,4.75
2019-05-26T08:40:22.586Z,4.50
2019-05-26T08:41:27.227Z,4.70
2019-05-26T08:42:43.773Z,4.95
2019-05-26T08:43:36.972Z,4.45
2019-05-26T08:44:40.617Z,5.35
2019-05-26T08:45:44.889Z,4.62
2019-05-26T08:46:48.557Z,4.92
2019-05-26T08:47:53.197Z,5.25
2019-05-26T08:48:56.908Z,4.83
2019-05-26T08:50:01.117Z,6.47
2019-05-26T08:51:04.788Z,4.33
2019-05-26T08:52:09.017Z,6.42
2019-05-26T08:53:12.658Z,4.53
2019-05-26T08:54:16.874Z,5.75
2019-05-26T08:55:21.227Z,5.50
2019-05-26T08:56:25.807Z,4.37
2019-05-26T08:57:29.455Z,4.40
2019-05-26T08:58:36.118Z,5.05
2019-05-26T08:59:39.753Z,4.78
2019-05-26T09:00:44.351Z,4.72
2019-05-26T09:01:48.045Z,4.67
2019-05-26T09:02:52.339Z,6.90
2019-05-26T09:03:55.948Z,4.80
2019-05-26T09:05:00.357Z,4.05
2019-05-26T09:06:04.195Z,4.20
2019-05-26T09:07:08.454Z,7.67
2019-05-26T09:08:12.103Z,4.20
2019-05-26T09:09:16.316Z,3.95
2019-05-26T09:10:20.050Z,4.42
2019-05-26T09:11:24.892Z,4.50
2019-05-26T09:12:28.580Z,3.92
2019-05-26T09:13:33.282Z,3.70
2019-05-26T09:14:36.974Z,3.98
2019-05-26T09:15:43.428Z,4.00
2019-05-26T09:16:47.108Z,3.52
2019-05-26T09:17:51.656Z,3.50
2019-05-26T09:18:55.300Z,5.53
2019-05-26T09:19:59.612Z,6.37
2019-05-26T09:21:03.251Z,4.05
2019-05-26T09:22:07.544Z,5.00
2019-05-26T09:23:11.558Z,4.17
2019-05-26T09:24:16.335Z,4.37
2019-05-26T09:25:20.791Z,4.53
2019-05-26T09:26:25.049Z,4.62
2019-05-26T09:27:28.678Z,5.15
2019-05-26T09:28:33.008Z,5.58
2019-05-26T09:29:36.660Z,5.60
2019-05-26T09:30:40.894Z,4.90
2019-05-26T09:31:44.574Z,4.55
2019-05-26T09:32:48.865Z,4.90
2019-05-26T09:33:52.547Z,5.35
2019-05-26T09:34:56.766Z,3.83
2019-05-26T09:36:00.414Z,4.40
2019-05-26T09:37:04.681Z,4.08
2019-05-26T09:38:08.758Z,4.70
2019-05-26T09:39:13.060Z,4.58
2019-05-26T09:40:17.198Z,5.35
2019-05-26T09:41:21.415Z,5.60
2019-05-26T09:42:25.066Z,6.80
2019-05-26T09:43:33.447Z,5.17
2019-05-26T09:44:37.092Z,5.25
2019-05-26T09:45:41.321Z,4.55
2019-05-26T09:46:45.302Z,7.42
2019-05-26T09:47:49.560Z,4.50
2019-05-26T09:48:53.697Z,4.22
2019-05-26T09:49:57.949Z,4.17
2019-05-26T09:51:01.663Z,4.78
2019-05-26T09:52:05.978Z,4.25
2019-05-26T09:53:10.145Z,6.62
2019-05-26T09:54:14.392Z,7.62
2019-05-26T09:55:18.537Z,5.90
2019-05-26T09:56:23.172Z,4.35
2019-05-26T09:57:26.807Z,4.50
2019-05-26T09:58:31.199Z,6.92
2019-05-26T09:59:34.868Z,6.20
2019-05-26T10:00:39.133Z,4.03
2019-05-26T10:01:42.788Z,4.58
2019-05-26T10:02:47.054Z,4.25
2019-05-26T10:03:51.238Z,4.20
2019-05-26T10:04:55.852Z,3.58
2019-05-26T10:06:01.486Z,3.62
2019-05-26T10:07:11.165Z,3.70
2019-05-26T10:08:15.049Z,3.87
2019-05-26T10:09:19.341Z,3.35
2019-05-26T10:10:23.043Z,3.55
2019-05-26T10:11:27.692Z,3.33
2019-05-26T10:12:31.762Z,3.90
2019-05-26T10:13:36.210Z,4.42
2019-05-26T10:14:39.950Z,5.00
2019-05-26T10:15:44.218Z,4.53
2019-05-26T10:16:47.911Z,8.83
2019-05-26T10:17:52.264Z,3.80
2019-05-26T10:18:55.941Z,3.60
2019-05-26T10:20:03.495Z,4.22
2019-05-26T10:21:07.194Z,4.33
2019-05-26T10:22:12.870Z,4.20
2019-05-26T10:23:17.304Z,3.12
2019-05-26T10:24:21.630Z,2.40
2019-05-26T10:25:25.371Z,2.83
2019-05-26T10:26:31.809Z,2.62
2019-05-26T10:27:36.033Z,3.05
2019-05-26T10:28:40.550Z,1.92
2019-05-26T10:29:45.950Z,3.70
2019-05-26T10:30:50.323Z,3.45
2019-05-26T10:31:56.977Z,2.60
2019-05-26T10:33:01.487Z,3.15
2019-05-26T10:34:08.071Z,2.83
2019-05-26T10:35:12.542Z,3.47
2019-05-26T10:36:16.200Z,3.37
2019-05-26T10:37:20.545Z,3.02
2019-05-26T10:38:24.683Z,2.45
2019-05-26T10:39:30.914Z,2.50
2019-05-26T10:40:34.605Z,2.30
2019-05-26T10:41:39.220Z,2.42
2019-05-26T10:42:43.284Z,2.35
2019-05-26T10:43:53.626Z,1.92
2019-05-26T10:44:57.371Z,2.25
2019-05-26T10:46:01.680Z,2.30
2019-05-26T10:47:06.969Z,2.80
2019-05-26T10:48:11.211Z,2.55
2019-05-26T10:49:15.210Z,2.45
2019-05-26T10:50:22.239Z,3.83
2019-05-26T10:51:27.338Z,1.92
2019-05-26T10:52:31.508Z,2.87
2019-05-26T10:53:35.108Z,3.00
2019-05-26T10:54:39.457Z,9.30
2019-05-26T10:55:43.188Z,3.05
2019-05-26T10:56:49.974Z,4.70
2019-05-26T10:57:53.651Z,14.73
2019-05-26T10:58:57.899Z,4.28
2019-05-26T11:00:01.563Z,4.95
2019-05-26T11:01:05.883Z,2.83
2019-05-26T11:02:09.536Z,2.80
2019-05-26T11:03:13.859Z,2.27
2019-05-26T11:04:17.565Z,2.42
2019-05-26T11:05:21.817Z,2.98
2019-05-26T11:06:25.828Z,2.80
2019-05-26T11:07:30.115Z,2.47
2019-05-26T11:08:34.082Z,7.55
2019-05-26T11:09:38.401Z,2.52
2019-05-26T11:10:42.485Z,3.02
2019-05-26T11:11:46.650Z,3.20
2019-05-26T11:12:52.816Z,1.95
2019-05-26T11:14:02.681Z,2.70
2019-05-26T11:15:02.466Z,2.15
2019-05-26T11:16:06.773Z,2.12
2019-05-26T11:17:10.377Z,3.00
2019-05-26T11:18:14.667Z,2.20
2019-05-26T11:19:18.258Z,2.75
2019-05-26T11:20:24.712Z,4.53
2019-05-26T11:21:28.486Z,2.33
2019-05-26T11:22:33.128Z,2.80
2019-05-26T11:23:36.875Z,3.60
2019-05-26T11:24:41.087Z,2.95
2019-05-26T11:25:44.717Z,3.02
2019-05-26T11:26:49.558Z,2.65
2019-05-26T11:27:53.936Z,3.45
2019-05-26T11:28:58.164Z,3.12
2019-05-26T11:30:02.212Z,2.40
2019-05-26T11:31:06.421Z,3.70
2019-05-26T11:32:10.156Z,3.40
2019-05-26T11:33:14.448Z,3.67
2019-05-26T11:34:18.150Z,2.47
2019-05-26T11:35:22.958Z,2.92
2019-05-26T11:36:26.606Z,2.45
2019-05-26T11:37:30.837Z,3.58
2019-05-26T11:38:34.799Z,2.25
2019-05-26T11:39:39.024Z,3.05
2019-05-26T11:40:47.279Z,5.05
2019-05-26T11:42:12.383Z,3.15
2019-05-26T11:43:15.674Z,2.40
2019-05-26T11:44:17.544Z,2.35
2019-05-26T11:45:15.459Z,2.52
2019-05-26T11:46:19.780Z,2.30
2019-05-26T11:47:23.516Z,1.80
2019-05-26T11:48:32.396Z,2.55
2019-05-26T11:49:36.412Z,2.05
2019-05-26T11:50:41.028Z,2.27
2019-05-26T11:51:44.714Z,3.08
2019-05-26T11:52:49.414Z,2.52
2019-05-26T11:53:53.107Z,2.40
2019-05-26T11:54:57.381Z,2.30
2019-05-26T11:56:03.841Z,3.02
2019-05-26T11:57:08.307Z,2.67
2019-05-26T11:58:12.077Z,2.50
2019-05-26T11:59:16.730Z,3.02
2019-05-26T12:00:20.966Z,4.22
2019-05-26T12:01:25.307Z,5.30
2019-05-26T12:02:29.033Z,2.37
2019-05-26T12:03:33.405Z,5.15
2019-05-26T12:04:37.030Z,4.97
2019-05-26T12:05:41.274Z,2.62
2019-05-26T12:06:44.897Z,2.40
2019-05-26T12:07:48.925Z,3.25
2019-05-26T12:08:52.542Z,2.55
2019-05-26T12:09:57.710Z,2.00
2019-05-26T12:11:01.381Z,2.45
2019-05-26T12:12:05.803Z,2.60
2019-05-26T12:13:09.470Z,3.70
2019-05-26T12:14:14.136Z,11.25
2019-05-26T12:15:18.139Z,6.80
2019-05-26T12:16:23.769Z,2.40
2019-05-26T12:17:27.343Z,2.83
2019-05-26T12:18:31.583Z,2.47
2019-05-26T12:19:35.593Z,2.33
2019-05-26T12:20:39.881Z,2.72
2019-05-26T12:21:43.579Z,2.00
2019-05-26T12:22:48.485Z,2.37
2019-05-26T12:23:54.909Z,3.20
2019-05-26T12:24:58.298Z,4.83
2019-05-26T12:26:02.354Z,2.72
2019-05-26T12:27:06.722Z,4.72
2019-05-26T12:28:10.384Z,2.12
2019-05-26T12:29:14.596Z,3.02
2019-05-26T12:30:18.899Z,2.05
2019-05-26T12:31:23.096Z,2.42
2019-05-26T12:32:26.705Z,3.65
2019-05-26T12:33:30.927Z,2.62
2019-05-26T12:34:34.872Z,2.72
2019-05-26T12:35:43.709Z,2.47
2019-05-26T12:36:47.342Z,2.85
2019-05-26T12:37:51.579Z,4.22
2019-05-26T12:38:55.220Z,2.35
2019-05-26T12:39:59.502Z,2.33
2019-05-26T12:41:03.302Z,2.50
2019-05-26T12:42:07.706Z,5.28
2019-05-26T12:43:11.630Z,2.72
2019-05-26T12:44:15.824Z,2.50
2019-05-26T12:45:20.041Z,2.40
2019-05-26T12:46:24.336Z,2.40
2019-05-26T12:47:27.988Z,2.20
2019-05-26T12:48:32.225Z,2.80
2019-05-26T12:49:47.024Z,2.40
2019-05-26T12:50:51.458Z,2.22
2019-05-26T12:51:55.150Z,3.47
2019-05-26T12:52:59.981Z,3.17
2019-05-26T12:54:03.680Z,3.20
2019-05-26T12:55:09.920Z,2.47
2019-05-26T12:56:13.758Z,2.62
2019-05-26T12:57:18.067Z,2.92
2019-05-26T12:58:21.814Z,2.60
2019-05-26T12:59:26.061Z,5.55
2019-05-26T13:00:45.366Z,2.33
2019-05-26T13:01:35.946Z,2.70
2019-05-26T13:02:39.606Z,2.70
2019-05-26T13:03:43.826Z,2.55
2019-05-26T13:04:47.543Z,3.20
2019-05-26T13:05:51.838Z,4.60
2019-05-26T13:06:55.654Z,4.17
2019-05-26T13:08:01.619Z,3.55
2019-05-26T13:09:08.528Z,4.00
2019-05-26T13:10:13.839Z,3.10
2019-05-26T13:11:17.467Z,2.52
2019-05-26T13:12:21.902Z,2.52
2019-05-26T13:13:25.852Z,2.27
2019-05-26T13:14:30.098Z,2.52
2019-05-26T13:15:33.732Z,3.52
2019-05-26T13:16:38.109Z,3.30
2019-05-26T13:17:42.189Z,2.00
2019-05-26T13:18:46.419Z,2.40
2019-05-26T13:19:50.870Z,3.33
2019-05-26T13:20:55.136Z,2.77
2019-05-26T13:21:59.166Z,5.10
2019-05-26T13:23:03.413Z,2.90
2019-05-26T13:24:09.240Z,4.55
2019-05-26T13:25:14.455Z,4.10
2019-05-26T13:26:18.091Z,3.60
2019-05-26T13:27:22.523Z,2.55
2019-05-26T13:28:26.300Z,2.47
2019-05-26T13:29:30.529Z,2.90
2019-05-26T13:30:34.641Z,2.33
2019-05-26T13:31:38.921Z,3.17
2019-05-26T13:32:42.582Z,3.22
2019-05-26T13:33:49.373Z,4.05
2019-05-26T13:34:53.170Z,2.98
2019-05-26T13:35:57.428Z,5.72
2019-05-26T13:37:01.161Z,2.45
2019-05-26T13:38:05.407Z,3.22
2019-05-26T13:39:09.587Z,8.50
2019-05-26T13:40:14.741Z,2.67
2019-05-26T13:41:18.408Z,2.58
2019-05-26T13:42:22.641Z,3.25
2019-05-26T13:43:26.632Z,3.00
2019-05-26T13:44:31.248Z,3.00
2019-05-26T13:45:34.882Z,2.95
2019-05-26T13:46:39.125Z,2.40
2019-05-26T13:47:42.773Z,4.17
2019-05-26T13:48:47.147Z,2.20
2019-05-26T13:49:50.744Z,2.80
2019-05-26T13:50:55.002Z,2.20
2019-05-26T13:51:58.682Z,3.80
2019-05-26T13:53:02.881Z,3.77
2019-05-26T13:54:07.459Z,5.08
2019-05-26T13:55:12.567Z,2.60
2019-05-26T13:56:16.214Z,2.67
2019-05-26T13:57:20.450Z,4.97
2019-05-26T13:58:24.095Z,3.80
2019-05-26T13:59:28.333Z,4.30
2019-05-26T14:00:31.985Z,5.62
2019-05-26T14:01:35.978Z,4.20
2019-05-26T14:02:39.602Z,4.00
2019-05-26T14:03:43.834Z,3.27
2019-05-26T14:04:47.549Z,2.85
2019-05-26T14:05:51.766Z,3.70
2019-05-26T14:06:55.438Z,3.30